createdAt,value
2023-02-23T00:02:08.794Z,77.77
2023-02-23T00:04:38.605Z,78.17
2023-02-23T00:07:10.100Z,78.09
2023-02-23T00:09:39.121Z,77.89
2023-02-23T00:12:15.555Z,78.13
2023-02-23T00:14:44.326Z,78.18
2023-02-23T00:17:15.145Z,78.33
2023-02-23T00:19:44.076Z,78.60
2023-02-23T00:22:12.194Z,78.34
2023-02-23T00:24:40.832Z,78.39
2023-02-23T00:27:11.014Z,78.35
2023-02-23T00:29:40.691Z,78.59
2023-02-23T00:32:09.426Z,78.63
2023-02-23T00:34:37.188Z,78.84
2023-02-23T00:37:04.353Z,78.76
2023-02-23T00:39:34.305Z,78.73
2023-02-23T00:42:03.491Z,78.92
2023-02-23T00:44:34.136Z,78.72
2023-02-23T00:47:02.075Z,78.92
2023-02-23T00:49:29.203Z,78.91
2023-02-23T00:51:56.513Z,78.95
2023-02-23T00:54:23.654Z,79.18
2023-02-23T00:56:51.700Z,79.08
2023-02-23T00:59:19.788Z,79.13
2023-02-23T01:01:47.120Z,79.17
2023-02-23T01:04:14.759Z,79.27
2023-02-23T01:06:42.819Z,79.33
2023-02-23T01:09:13.679Z,79.52
2023-02-23T01:11:41.738Z,79.69
2023-02-23T01:14:10.610Z,79.56
2023-02-23T01:16:41.027Z,79.55
2023-02-23T01:19:08.504Z,79.75
2023-02-23T01:21:42.612Z,79.75
2023-02-23T01:24:13.199Z,79.75
2023-02-23T01:26:43.820Z,80.01
2023-02-23T01:29:13.855Z,79.98
2023-02-23T01:31:47.961Z,79.82
2023-02-23T01:34:21.495Z,79.72
2023-02-23T01:36:48.752Z,79.86
2023-02-23T01:39:20.949Z,79.96
2023-02-23T01:41:51.112Z,80.03
2023-02-23T01:44:23.307Z,80.13
2023-02-23T01:46:50.782Z,80.38
2023-02-23T01:49:25.789Z,80.34
2023-02-23T01:52:03.755Z,80.16
2023-02-23T01:54:36.525Z,80.41
2023-02-23T01:57:05.154Z,80.43
2023-02-23T01:59:44.537Z,80.45
2023-02-23T02:02:13.474Z,80.62
2023-02-23T02:04:45.523Z,80.56
2023-02-23T02:07:25.137Z,80.43
2023-02-23T02:10:13.409Z,80.86
2023-02-23T02:12:45.149Z,80.86
2023-02-23T02:15:18.453Z,80.73
2023-02-23T02:17:57.145Z,80.85
2023-02-23T02:20:38.158Z,80.83
2023-02-23T02:23:34.605Z,80.57
2023-02-23T02:26:21.150Z,80.74
2023-02-23T02:29:31.425Z,80.56
2023-02-23T02:32:16.964Z,80.26
2023-02-23T02:34:55.630Z,80.32
2023-02-23T02:37:56.992Z,80.57
2023-02-23T02:40:26.869Z,80.62
2023-02-23T02:43:17.739Z,80.54
2023-02-23T02:45:53.526Z,81.04
2023-02-23T02:48:25.948Z,81.17
2023-02-23T02:50:57.536Z,81.32
2023-02-23T02:53:36.765Z,81.19
2023-02-23T02:56:09.660Z,81.30
2023-02-23T02:58:39.189Z,81.31
2023-02-23T03:01:32.193Z,81.57
2023-02-23T03:04:19.787Z,81.73
2023-02-23T03:07:31.032Z,81.73
2023-02-23T03:10:55.314Z,81.80
2023-02-23T03:13:48.673Z,81.82
2023-02-23T03:16:49.066Z,81.81
2023-02-23T03:19:40.284Z,81.94
2023-02-23T03:22:42.363Z,81.81
2023-02-23T03:25:35.606Z,81.79
2023-02-23T03:28:44.066Z,82.12
2023-02-23T03:31:33.757Z,82.14
2023-02-23T03:34:29.893Z,82.15
2023-02-23T03:37:38.724Z,82.06
2023-02-23T03:40:35.121Z,82.26
2023-02-23T03:43:24.186Z,82.27
2023-02-23T03:46:18.236Z,82.49
2023-02-23T03:49:04.737Z,82.30
2023-02-23T03:51:53.386Z,82.36
2023-02-23T03:54:51.765Z,82.49
2023-02-23T03:57:40.516Z,82.28
2023-02-23T04:00:28.850Z,82.45
2023-02-23T04:03:16.198Z,82.19
2023-02-23T04:06:03.968Z,82.09
2023-02-23T04:08:55.000Z,81.81
2023-02-23T04:11:48.061Z,81.90
2023-02-23T04:14:27.250Z,81.89
2023-02-23T04:16:55.652Z,82.05
2023-02-23T04:19:24.408Z,82.18
2023-02-23T04:21:51.537Z,81.95
2023-02-23T04:24:18.614Z,82.26
2023-02-23T04:26:45.626Z,82.10
2023-02-23T04:29:12.845Z,82.14
2023-02-23T04:31:41.849Z,82.14
2023-02-23T04:34:08.911Z,82.05
2023-02-23T04:36:36.674Z,82.25
2023-02-23T04:39:03.819Z,82.07
2023-02-23T04:41:31.552Z,81.95
2023-02-23T04:43:58.746Z,81.82
2023-02-23T04:46:26.067Z,81.86
2023-02-23T04:48:53.123Z,81.86
2023-02-23T04:51:20.330Z,81.80
2023-02-23T04:53:47.434Z,81.71
2023-02-23T04:56:19.043Z,81.85
2023-02-23T04:58:46.146Z,81.84
2023-02-23T05:01:13.213Z,81.72
2023-02-23T05:03:40.181Z,81.81
2023-02-23T05:06:07.253Z,81.76
2023-02-23T05:08:34.326Z,81.54
2023-02-23T05:11:01.260Z,81.45
2023-02-23T05:13:28.511Z,81.36
2023-02-23T05:15:57.900Z,81.09
2023-02-23T05:18:26.559Z,81.04
2023-02-23T05:20:54.296Z,80.83
2023-02-23T05:23:22.034Z,80.86
2023-02-23T05:25:49.119Z,80.70
2023-02-23T05:28:16.155Z,80.62
2023-02-23T05:30:44.218Z,80.36
2023-02-23T05:33:11.173Z,80.24
2023-02-23T05:35:41.193Z,80.15
2023-02-23T05:38:08.657Z,80.09
2023-02-23T05:40:36.658Z,80.24
2023-02-23T05:43:03.667Z,80.13
2023-02-23T05:45:30.830Z,79.87
2023-02-23T05:48:00.902Z,79.75
2023-02-23T05:50:28.425Z,79.69
2023-02-23T05:52:55.511Z,79.66
2023-02-23T05:55:25.960Z,79.40
2023-02-23T05:57:54.742Z,78.99
2023-02-23T06:00:23.046Z,78.80
2023-02-23T06:02:54.079Z,78.51
2023-02-23T06:05:21.503Z,78.40
2023-02-23T06:07:48.496Z,78.45
2023-02-23T06:10:16.006Z,78.10
2023-02-23T06:12:43.068Z,78.35
2023-02-23T06:15:10.455Z,78.24
2023-02-23T06:17:37.518Z,78.06
2023-02-23T06:20:07.526Z,77.56
2023-02-23T06:22:34.577Z,76.99
2023-02-23T06:25:05.145Z,76.84
2023-02-23T06:27:32.241Z,76.73
2023-02-23T06:29:59.710Z,76.54
2023-02-23T06:32:27.976Z,76.22
2023-02-23T06:34:55.691Z,76.07
2023-02-23T06:37:24.514Z,75.37
2023-02-23T06:39:51.488Z,75.00
2023-02-23T06:42:21.951Z,74.68
2023-02-23T06:44:49.091Z,74.45
2023-02-23T06:47:17.564Z,73.88
2023-02-23T06:49:47.389Z,73.68
2023-02-23T06:52:14.892Z,73.74
2023-02-23T06:54:42.192Z,73.81
2023-02-23T06:57:09.858Z,73.73
2023-02-23T06:59:37.062Z,72.83
2023-02-23T07:02:06.990Z,72.20
2023-02-23T07:04:35.373Z,72.49
2023-02-23T07:07:04.231Z,72.02
2023-02-23T07:09:31.530Z,72.04
2023-02-23T07:11:58.778Z,71.83
2023-02-23T07:14:27.205Z,71.71
2023-02-23T07:16:57.315Z,70.60
2023-02-23T07:19:27.129Z,70.02
2023-02-23T07:21:54.337Z,70.26
2023-02-23T07:24:48.859Z,70.02
2023-02-23T07:27:15.923Z,69.86
2023-02-23T07:29:48.374Z,69.49
2023-02-23T07:32:18.361Z,68.92
2023-02-23T07:34:48.744Z,68.46
2023-02-23T07:37:17.367Z,68.73
2023-02-23T07:39:44.820Z,68.33
2023-02-23T07:42:15.228Z,68.40
2023-02-23T07:44:47.044Z,67.58
2023-02-23T07:47:14.654Z,67.21
2023-02-23T07:49:43.121Z,66.18
2023-02-23T07:52:14.260Z,64.41
2023-02-23T07:54:44.596Z,64.79
2023-02-23T07:57:12.131Z,64.61
2023-02-23T07:59:39.709Z,64.25
2023-02-23T08:02:13.362Z,63.92
2023-02-23T08:04:43.703Z,62.69
2023-02-23T08:07:11.561Z,61.38
2023-02-23T08:09:44.403Z,61.07
2023-02-23T08:12:18.014Z,60.59
2023-02-23T08:14:47.288Z,59.64
2023-02-23T08:19:57.723Z,58.30
2023-02-23T08:22:37.867Z,57.13
2023-02-23T08:25:45.807Z,56.20
2023-02-23T08:28:22.460Z,54.59
2023-02-23T08:30:50.697Z,54.61
2023-02-23T08:33:18.042Z,54.67
2023-02-23T08:35:45.693Z,54.54
2023-02-23T08:38:12.851Z,53.95
2023-02-23T08:40:40.353Z,53.01
2023-02-23T08:43:08.276Z,52.41
2023-02-23T08:45:35.733Z,51.50
2023-02-23T08:48:03.693Z,51.26
2023-02-23T08:50:30.954Z,50.29
2023-02-23T08:53:05.376Z,50.94
2023-02-23T08:55:37.009Z,49.86
2023-02-23T08:58:04.267Z,49.73
2023-02-23T09:00:33.908Z,48.96
2023-02-23T09:03:00.874Z,47.43
2023-02-23T09:05:30.321Z,46.80
2023-02-23T09:07:58.764Z,46.61
2023-02-23T09:10:53.381Z,45.71
2023-02-23T09:13:20.998Z,46.00
2023-02-23T09:16:17.149Z,45.68
2023-02-23T09:21:35.613Z,44.66
2023-02-23T09:24:33.330Z,44.10
2023-02-23T09:27:00.702Z,44.11
2023-02-23T09:29:27.663Z,42.81
2023-02-23T09:31:57.723Z,43.35
2023-02-23T09:34:24.971Z,43.19
2023-02-23T09:36:52.348Z,42.38
2023-02-23T09:39:32.238Z,41.60
2023-02-23T09:42:16.432Z,41.52
2023-02-23T09:45:26.781Z,41.41
2023-02-23T09:48:10.894Z,41.02
2023-02-23T09:50:45.613Z,41.04
2023-02-23T09:53:38.998Z,40.81
2023-02-23T09:56:13.435Z,40.55
2023-02-23T09:58:45.644Z,39.63
2023-02-23T10:01:41.392Z,39.47
2023-02-23T10:04:40.922Z,40.01
2023-02-23T10:07:20.767Z,38.87
2023-02-23T10:09:52.181Z,37.85
2023-02-23T10:12:49.168Z,37.57
2023-02-23T10:15:37.533Z,37.35
2023-02-23T10:18:30.700Z,36.32
2023-02-23T10:21:36.249Z,36.52
2023-02-23T10:24:27.929Z,37.08
2023-02-23T10:27:16.336Z,36.28
2023-02-23T10:29:56.569Z,37.95
2023-02-23T10:32:46.622Z,37.02
2023-02-23T10:35:21.576Z,35.93
2023-02-23T10:37:55.696Z,36.82
2023-02-23T10:40:33.333Z,35.41
2023-02-23T10:43:38.399Z,34.79
2023-02-23T10:46:39.103Z,35.87
2023-02-23T10:49:17.958Z,37.13
2023-02-23T10:51:45.672Z,35.52
2023-02-23T10:54:35.840Z,38.65
2023-02-23T10:57:05.016Z,39.22
2023-02-23T10:59:37.164Z,36.82
2023-02-23T11:02:27.577Z,35.89
2023-02-23T11:05:01.304Z,36.63
2023-02-23T11:07:42.326Z,36.54
2023-02-23T11:13:36.210Z,36.33
2023-02-23T11:16:25.899Z,35.13
2023-02-23T11:19:05.491Z,32.60
2023-02-23T11:21:40.280Z,33.55
2023-02-23T11:24:16.818Z,34.27
2023-02-23T11:26:55.401Z,32.30
2023-02-23T11:29:36.945Z,34.62
2023-02-23T11:32:10.406Z,32.75
2023-02-23T11:34:41.456Z,31.23
2023-02-23T11:37:20.286Z,31.64
2023-02-23T11:40:02.301Z,32.03
2023-02-23T11:42:38.629Z,30.80
2023-02-23T11:45:18.983Z,29.18
2023-02-23T11:47:59.158Z,30.74
2023-02-23T11:50:38.750Z,30.33
2023-02-23T11:53:07.902Z,30.34
2023-02-23T11:55:44.310Z,29.69
2023-02-23T11:58:23.104Z,30.66
2023-02-23T12:00:59.849Z,30.22
2023-02-23T12:03:29.695Z,31.37
2023-02-23T12:05:59.282Z,30.90
2023-02-23T12:08:48.274Z,31.14
2023-02-23T12:11:26.797Z,30.43
2023-02-23T12:14:05.602Z,31.36
2023-02-23T12:16:40.267Z,31.21
2023-02-23T12:19:08.574Z,31.14
2023-02-23T12:21:41.520Z,31.88
2023-02-23T12:24:08.714Z,32.48
2023-02-23T12:26:48.582Z,32.56
2023-02-23T12:29:30.213Z,32.04
2023-02-23T12:32:04.097Z,31.82
2023-02-23T12:34:45.026Z,33.06
2023-02-23T12:37:29.273Z,33.01
2023-02-23T12:40:04.738Z,32.88
2023-02-23T12:43:09.246Z,33.64
2023-02-23T12:49:01.166Z,32.92
2023-02-23T12:52:06.673Z,33.05
2023-02-23T12:54:39.104Z,32.14
2023-02-23T12:57:13.499Z,32.99
2023-02-23T12:59:57.430Z,32.90
2023-02-23T13:02:42.554Z,33.35
2023-02-23T13:05:16.282Z,33.49
2023-02-23T13:07:47.881Z,33.48
2023-02-23T13:10:53.798Z,32.30
2023-02-23T13:16:45.398Z,32.44
2023-02-23T13:19:38.462Z,32.11
2023-02-23T13:22:08.394Z,33.70
2023-02-23T13:24:44.425Z,33.52
2023-02-23T13:27:36.536Z,33.38
2023-02-23T13:30:25.513Z,33.73
2023-02-23T13:32:52.960Z,33.94
2023-02-23T13:35:22.878Z,33.84
2023-02-23T13:38:04.871Z,34.24
2023-02-23T13:40:51.741Z,33.09
2023-02-23T13:44:02.266Z,33.36
2023-02-23T13:46:44.360Z,33.84
2023-02-23T13:49:34.039Z,34.68
2023-02-23T13:52:21.360Z,34.56
2023-02-23T13:54:56.554Z,35.59
2023-02-23T13:57:28.006Z,35.95
2023-02-23T13:59:55.295Z,36.62
2023-02-23T14:02:33.387Z,36.58
2023-02-23T14:05:24.926Z,38.06
2023-02-23T14:07:55.203Z,40.49
2023-02-23T14:10:29.942Z,42.83
2023-02-23T14:13:18.240Z,43.60
2023-02-23T14:15:53.832Z,44.55
2023-02-23T14:18:21.254Z,45.40
2023-02-23T14:20:57.526Z,45.54
2023-02-23T14:23:25.144Z,46.21
2023-02-23T14:26:13.412Z,46.80
2023-02-23T14:28:46.895Z,47.14
2023-02-23T14:31:14.125Z,47.88
2023-02-23T14:33:45.592Z,48.12
2023-02-23T14:36:22.301Z,48.62
2023-02-23T14:39:01.404Z,48.45
2023-02-23T14:41:58.687Z,49.31
2023-02-23T14:44:54.456Z,49.09
2023-02-23T14:47:26.787Z,49.50
2023-02-23T14:50:04.845Z,49.79
2023-02-23T14:52:38.414Z,50.29
2023-02-23T14:55:11.352Z,50.16
2023-02-23T14:57:42.076Z,51.08
2023-02-23T15:00:23.213Z,51.25
2023-02-23T15:02:55.436Z,51.63
2023-02-23T15:05:26.535Z,52.42
2023-02-23T15:07:58.945Z,52.63
2023-02-23T15:10:32.870Z,52.92
2023-02-23T15:13:01.677Z,53.21
2023-02-23T15:15:31.864Z,53.49
2023-02-23T15:18:00.356Z,53.70
2023-02-23T15:23:03.869Z,54.42
2023-02-23T15:25:39.925Z,54.53
2023-02-23T15:28:21.992Z,55.19
2023-02-23T15:30:51.748Z,55.80
2023-02-23T15:33:23.803Z,56.34
2023-02-23T15:36:01.016Z,56.79
2023-02-23T15:38:43.605Z,57.20
2023-02-23T15:41:27.321Z,57.61
2023-02-23T15:43:56.366Z,57.93
2023-02-23T15:46:29.185Z,58.72
2023-02-23T15:49:03.222Z,59.03
2023-02-23T15:51:36.653Z,59.09
2023-02-23T15:54:13.974Z,59.26
2023-02-23T15:56:41.268Z,59.15
2023-02-23T15:59:14.629Z,58.93
2023-02-23T16:01:45.012Z,59.46
2023-02-23T16:04:15.669Z,59.42
2023-02-23T16:07:04.556Z,59.61
2023-02-23T16:09:37.590Z,59.54
2023-02-23T16:12:05.726Z,59.79
2023-02-23T16:14:45.645Z,59.81
2023-02-23T16:17:27.976Z,59.84
2023-02-23T16:19:58.602Z,60.03
2023-02-23T16:22:27.782Z,59.94
2023-02-23T16:25:03.870Z,60.26
2023-02-23T16:27:33.838Z,60.27
2023-02-23T16:30:26.033Z,60.46
2023-02-23T16:33:44.628Z,60.68
2023-02-23T16:36:13.266Z,61.04
2023-02-23T16:38:58.118Z,61.04
2023-02-23T16:41:27.856Z,61.53
2023-02-23T16:43:57.549Z,61.92
2023-02-23T16:46:31.842Z,62.03
2023-02-23T16:49:10.473Z,62.29
2023-02-23T16:51:38.568Z,62.54
2023-02-23T16:54:08.611Z,63.13
2023-02-23T16:56:39.178Z,63.05
2023-02-23T16:59:09.845Z,63.65
2023-02-23T17:01:37.333Z,63.83
2023-02-23T17:07:04.919Z,63.69
2023-02-23T17:09:32.684Z,64.23
2023-02-23T17:12:00.142Z,64.55
2023-02-23T17:14:33.352Z,64.77
2023-02-23T17:17:01.346Z,65.26
2023-02-23T17:19:28.563Z,65.38
2023-02-23T17:22:01.168Z,65.57
2023-02-23T17:24:28.415Z,65.79
2023-02-23T17:26:55.874Z,65.83
2023-02-23T17:29:23.231Z,65.99
2023-02-23T17:31:52.631Z,66.20
2023-02-23T17:34:23.522Z,66.14
2023-02-23T17:36:51.659Z,66.33
2023-02-23T17:39:19.625Z,66.40
2023-02-23T17:41:50.324Z,66.50
2023-02-23T17:44:17.760Z,66.74
2023-02-23T17:46:44.910Z,66.49
2023-02-23T17:49:15.254Z,66.54
2023-02-23T17:51:43.006Z,66.43
2023-02-23T17:54:13.246Z,66.76
2023-02-23T17:59:27.065Z,66.71
2023-02-23T18:01:54.208Z,66.87
2023-02-23T18:04:21.629Z,66.73
2023-02-23T18:06:56.293Z,66.95
2023-02-23T18:09:27.112Z,67.01
2023-02-23T18:20:40.261Z,67.07
2023-02-23T18:23:09.878Z,67.19
2023-02-23T18:26:24.844Z,67.21
2023-02-23T18:29:19.822Z,66.74
2023-02-23T18:31:54.874Z,67.18
2023-02-23T18:34:26.093Z,67.13
2023-02-23T18:37:03.820Z,67.57
2023-02-23T18:39:32.008Z,67.47
2023-02-23T18:42:00.918Z,67.73
2023-02-23T18:44:37.550Z,67.63
2023-02-23T18:47:04.731Z,67.67
2023-02-23T18:49:35.891Z,67.48
2023-02-23T18:52:05.889Z,67.78
2023-02-23T18:54:33.504Z,67.49
2023-02-23T18:57:03.382Z,67.47
2023-02-23T18:59:33.673Z,67.74
2023-02-23T19:02:05.847Z,67.76
2023-02-23T19:07:20.506Z,67.44
2023-02-23T19:09:53.747Z,67.61
2023-02-23T19:12:41.842Z,67.55
2023-02-23T19:15:15.485Z,67.62
2023-02-23T19:17:42.770Z,67.89
2023-02-23T19:20:17.664Z,68.12
2023-02-23T19:22:46.013Z,68.27
2023-02-23T19:25:21.631Z,68.14
2023-02-23T19:27:49.310Z,68.29
2023-02-23T19:30:19.700Z,68.38
2023-02-23T19:32:49.466Z,68.57
2023-02-23T19:35:17.129Z,68.58
2023-02-23T19:37:47.829Z,68.86
2023-02-23T19:40:19.886Z,68.47
2023-02-23T19:42:48.201Z,68.70
2023-02-23T19:45:16.233Z,68.68
2023-02-23T19:47:44.196Z,68.85
2023-02-23T19:50:20.251Z,68.55
2023-02-23T19:52:49.302Z,68.74
2023-02-23T19:55:16.463Z,68.70
2023-02-23T19:57:47.072Z,68.64
2023-02-23T20:00:14.828Z,68.75
2023-02-23T20:02:46.756Z,68.20
2023-02-23T20:05:16.777Z,68.52
2023-02-23T20:07:44.824Z,68.73
2023-02-23T20:10:16.686Z,68.72
2023-02-23T20:12:44.302Z,68.96
2023-02-23T20:15:17.160Z,68.72
2023-02-23T20:17:54.001Z,68.68
2023-02-23T20:20:26.684Z,68.77
2023-02-23T20:22:53.868Z,68.85
2023-02-23T20:25:22.974Z,68.78
2023-02-23T20:27:51.449Z,68.71
2023-02-23T20:30:20.156Z,68.87
2023-02-23T20:32:48.234Z,68.74
2023-02-23T20:35:22.172Z,68.67
2023-02-23T20:37:52.349Z,68.63
2023-02-23T20:40:20.410Z,68.63
2023-02-23T20:42:49.167Z,68.68
2023-02-23T20:45:22.530Z,68.73
2023-02-23T20:47:53.676Z,68.65
2023-02-23T20:50:35.848Z,68.84
2023-02-23T20:53:08.814Z,68.97
2023-02-23T20:55:36.092Z,68.89
2023-02-23T20:58:05.856Z,69.01
2023-02-23T21:00:33.100Z,68.93
2023-02-23T21:03:05.460Z,69.01
2023-02-23T21:05:57.893Z,69.10
2023-02-23T21:08:25.085Z,69.09
2023-02-23T21:10:53.796Z,69.10
2023-02-23T21:13:23.325Z,69.08
2023-02-23T21:16:01.652Z,69.16
2023-02-23T21:18:30.834Z,69.02
2023-02-23T21:21:06.948Z,68.83
2023-02-23T21:23:34.292Z,68.58
2023-02-23T21:26:09.927Z,68.68
2023-02-23T21:28:39.441Z,68.90
2023-02-23T21:31:06.933Z,68.75
2023-02-23T21:33:39.974Z,68.97
2023-02-23T21:36:11.396Z,68.77
2023-02-23T21:38:43.731Z,68.80
2023-02-23T21:41:12.685Z,68.86
2023-02-23T21:43:41.627Z,69.04
2023-02-23T21:46:13.714Z,68.84
2023-02-23T21:48:41.658Z,69.08
2023-02-23T21:51:12.113Z,68.79
2023-02-23T21:53:40.267Z,68.79
2023-02-23T21:56:16.788Z,68.91
2023-02-23T21:58:52.606Z,68.94
2023-02-23T22:01:22.784Z,68.85
2023-02-23T22:03:50.863Z,69.00
2023-02-23T22:06:20.752Z,68.88
2023-02-23T22:08:51.201Z,69.00
2023-02-23T22:11:21.255Z,68.85
2023-02-23T22:13:49.904Z,68.78
2023-02-23T22:16:55.366Z,68.88
2023-02-23T22:19:37.582Z,68.66
2023-02-23T22:22:27.775Z,68.83
2023-02-23T22:25:12.835Z,68.97
2023-02-23T22:27:54.875Z,69.22
2023-02-23T22:30:23.203Z,69.05
2023-02-23T22:32:52.736Z,68.99
2023-02-23T22:35:53.661Z,68.87
2023-02-23T22:38:26.509Z,69.09
2023-02-23T22:41:11.075Z,68.80
2023-02-23T22:43:46.591Z,68.98
2023-02-23T22:46:28.376Z,68.83
2023-02-23T22:49:01.903Z,69.09
2023-02-23T22:51:35.834Z,68.84
2023-02-23T22:54:09.137Z,68.66
2023-02-23T22:56:50.245Z,68.55
2023-02-23T22:59:25.440Z,68.11
2023-02-23T23:01:59.014Z,68.10
2023-02-23T23:04:34.820Z,67.99
2023-02-23T23:07:03.962Z,67.73
2023-02-23T23:09:58.215Z,67.94
2023-02-23T23:12:43.698Z,67.94
2023-02-23T23:15:57.709Z,68.34
2023-02-23T23:18:36.768Z,68.15
2023-02-23T23:21:14.512Z,68.11
2023-02-23T23:24:02.881Z,67.87
2023-02-23T23:26:53.932Z,67.28
2023-02-23T23:29:33.025Z,67.29
2023-02-23T23:32:08.799Z,67.41
2023-02-23T23:35:12.675Z,67.52
2023-02-23T23:37:41.749Z,67.28
2023-02-23T23:40:16.288Z,67.39
2023-02-23T23:42:51.915Z,67.16
2023-02-23T23:45:25.767Z,67.10
2023-02-23T23:48:01.044Z,67.19
2023-02-23T23:50:31.621Z,67.47
2023-02-23T23:53:02.026Z,67.23
2023-02-23T23:55:38.769Z,67.08
2023-02-23T23:58:08.181Z,66.98
